In Rescue
 
Open Full Screen Window  High Contrast Mode
Wind Gusting 00 knots
08
May 20, 2019 2:27 PM EDT
Weather Information
Wind Direction
  290 °
Wind Speed
  08 kt (9 mph)
Wind Gust
  00 kt (0 mph)
Variable Wind
260°
330°
Altimeter
29.91 in
Visibility
10 SM
Temperature
12° C
54° F
Dewpoint
04° C
39° F
Humidity
58%
1hr Rain Fall
00.00 in.
24hr Rain Fall
00.39 in.
Sky Condition
Overcast @ 4,700 ft
Scattered @ 3,800 ft
VFR

METAR KDRM 201827Z AUTO 29008KT 260V330 10SM SCT038 OVC047 12/04 A2991 RMK AO2 T01160035

FAA Disclaimer: The data displayed is for advisory purposes only and is not to be used for flight planning or operations.